< < Back
Terminal Aerodrome Forecast


Current Version              Previous Versions:   1  2  3  4  5  6  7  8  9  

Terminal Aerodrome Forecast

686
FTUS44 KOHX 191000 AAA
TAFBNA
TAF AMD
KBNA 191000Z 1910/2006 04004KT P6SM SCT045
     FM191500 10004KT P6SM SCT040=



Latest METAR

943
SAUS70 KWBC 200200 RRJ
MTRBNA
METAR KBNA 200153Z 00000KT 10SM FEW065 23/18 A3005 RMK AO2 SLP169
T02330178


USA.gov is the U.S. government's official web portal to all federal, state and local government web resources and services.